Virtual Norwegian is not affiliated with Norwegian Air Shuttle in any way.
If you are looking for the real "Norwegian", or you wish to book Norwegian flights, please visit Norwegian.com


We use cookies to ensure you get the best experience on our website.   ACCEPT

LFPG - CDG - Paris (Charles De Gaulle)

General Info Alternate Airport
ICAO: LFPG Elevation: 392 ft ICAO: LFPO
IATA: CDG Country: France IATA: ORY
City: Paris Charts: Log in to view charts City: Paris
Name: Charles De Gaulle Hub: No Name Orly
General Info
ICAO: LFPG
IATA: CDG
City: Paris
Name: Charles De Gaulle
Elevation: 392 ft
Country: France
Charts: Log in to view charts
Hub: No
 
Alternate Airport
ICAO: LFPO
IATA: ORY
City: Paris
Name: Orly

Weather
240500Z 01007G18KT 350V130 CAVOK 07/06 Q1033 NOSIG
Weather
240500Z 01007G18KT 350V130 CAVOK 07/06 Q1033 NOSIG

Runway Info
08L
Length ILS/LOC Course
4215 m 108.70 086
08R
Length ILS/LOC Course
2700 m 108.55 086
09L
Length ILS/LOC Course
2700 m 109.35 086
09R
Length ILS/LOC Course
4200 m 110.10 086
26L
Length ILS/LOC Course
2700 m 108.35 266
26R
Length ILS/LOC Course
4215 m 109.10 266
27L
Length ILS/LOC Course
4200 m 110.70 266
27R
Length ILS/LOC Course
2700 m 110.35 266

NOTAMs
NOTAMs currently unavailable.
NOTAMs
NOTAMs currently unavailable

Route map
Airport
Airport (hub)